Map

Track Data

SID SEASON NUMBER BASIN SUBBASIN NAME ISO_TIME NATURE LAT LON WMO_WIND WMO_PRES WMO_AGENCY TRACK_TYPE DIST2LAND LANDFALL IFLAG USA_AGENCY USA_ATCF_ID USA_LAT USA_LON USA_RECORD USA_STATUS USA_WIND USA_PRES USA_SSHS USA_R34_NE USA_R34_SE USA_R34_SW USA_R34_NW USA_R50_NE USA_R50_SE USA_R50_SW USA_R50_NW USA_R64_NE USA_R64_SE USA_R64_SW USA_R64_NW USA_POCI USA_ROCI USA_RMW USA_EYE TOKYO_LAT TOKYO_LON TOKYO_GRADE TOKYO_WIND TOKYO_PRES TOKYO_R50_DIR TOKYO_R50_LONG TOKYO_R50_SHORT TOKYO_R30_DIR TOKYO_R30_LONG TOKYO_R30_SHORT TOKYO_LAND CMA_LAT CMA_LON CMA_CAT CMA_WIND CMA_PRES HKO_LAT HKO_LON HKO_CAT HKO_WIND HKO_PRES NEWDELHI_LAT NEWDELHI_LON NEWDELHI_GRADE NEWDELHI_WIND NEWDELHI_PRES NEWDELHI_CI NEWDELHI_DP NEWDELHI_POCI REUNION_LAT REUNION_LON REUNION_TYPE REUNION_WIND REUNION_PRES REUNION_TNUM REUNION_CI REUNION_RMW REUNION_R34_NE REUNION_R34_SE REUNION_R34_SW REUNION_R34_NW REUNION_R50_NE REUNION_R50_SE REUNION_R50_SW REUNION_R50_NW REUNION_R64_NE REUNION_R64_SE REUNION_R64_SW REUNION_R64_NW BOM_LAT BOM_LON BOM_TYPE BOM_WIND BOM_PRES BOM_TNUM BOM_CI BOM_RMW BOM_R34_NE BOM_R34_SE BOM_R34_SW BOM_R34_NW BOM_R50_NE BOM_R50_SE BOM_R50_SW BOM_R50_NW BOM_R64_NE BOM_R64_SE BOM_R64_SW BOM_R64_NW BOM_ROCI BOM_POCI BOM_EYE BOM_POS_METHOD BOM_PRES_METHOD NADI_LAT NADI_LON NADI_CAT NADI_WIND NADI_PRES WELLINGTON_LAT WELLINGTON_LON WELLINGTON_WIND WELLINGTON_PRES DS824_LAT DS824_LON DS824_STAGE DS824_WIND DS824_PRES TD9636_LAT TD9636_LON TD9636_STAGE TD9636_WIND TD9636_PRES TD9635_LAT TD9635_LON TD9635_WIND TD9635_PRES TD9635_ROCI NEUMANN_LAT NEUMANN_LON NEUMANN_CLASS NEUMANN_WIND NEUMANN_PRES MLC_LAT MLC_LON MLC_CLASS MLC_WIND MLC_PRES USA_GUST BOM_GUST BOM_GUST_PER REUNION_GUST REUNION_GUST_PER USA_SEAHGT USA_SEARAD_NE USA_SEARAD_SE USA_SEARAD_SW USA_SEARAD_NW STORM_SPEED STORM_DIR
1949232N07141 1949 57 WP MM NOT_NAMED 1949-08-20 00:00:00 TS 7.40000 141.100 main 1058 1052 __O___________ -1 7.40000 141.100 0 1006 15 288
1949232N07141 1949 57 WP MM NOT_NAMED 1949-08-20 03:00:00 TS 7.63027 140.395 main 1059 1059 __P___________ -1 7.63027 140.395 0 1006 15 290
1949232N07141 1949 57 WP MM NOT_NAMED 1949-08-20 06:00:00 TS 7.90000 139.700 main 1062 1057 __O___________ -1 7.90000 139.700 0 1006 15 294
1949232N07141 1949 57 WP MM NOT_NAMED 1949-08-20 09:00:00 TS 8.23480 139.015 main 1065 1065 __P___________ -1 8.23480 139.015 0 1006 16 297
1949232N07141 1949 57 WP MM NOT_NAMED 1949-08-20 12:00:00 TS 8.60000 138.300 main 1084 1081 __O___________ -1 8.60000 138.300 0 1006 16 296
1949232N07141 1949 57 WP MM NOT_NAMED 1949-08-20 15:00:00 TS 8.94232 137.530 main 1096 1096 __P___________ -1 8.94232 137.530 0 1006 17 294
1949232N07141 1949 57 WP MM NOT_NAMED 1949-08-20 18:00:00 TS 9.30000 136.700 main 1126 1036 __O___________ -1 9.30000 136.700 0 1006 20 294
1949232N07141 1949 57 WP MM NOT_NAMED 1949-08-20 21:00:00 TS 9.72295 135.718 main 1025 951 __P___________ -1 9.72295 135.718 0 1006 20 294
1949232N07141 1949 57 WP MM NOT_NAMED 1949-08-21 00:00:00 TS 10.1000 134.900 main 951 926 __O___________ -1 10.1000 134.900 0 1006 13 298
1949232N07141 1949 57 WP MM NOT_NAMED 1949-08-21 03:00:00 TS 10.3370 134.560 main 926 908 __P___________ -1 10.3370 134.560 0 1005 6 309
1949232N07141 1949 57 WP MM NOT_NAMED 1949-08-21 06:00:00 TS 10.5000 134.400 main 908 879 __O___________ -1 10.5000 134.400 0 1004 5 305
1949232N07141 1949 57 WP MM NOT_NAMED 1949-08-21 09:00:00 TS 10.6500 134.107 main 879 851 __P___________ -1 10.6500 134.107 0 1004 7 297
1949232N07141 1949 57 WP MM NOT_NAMED 1949-08-21 12:00:00 TS 10.8000 133.800 main 851 824 __O___________ -1 10.8000 133.800 0 1004 7 300
1949232N07141 1949 57 WP MM NOT_NAMED 1949-08-21 15:00:00 TS 10.9924 133.507 main 824 798 __P___________ -1 10.9924 133.507 0 1003 7 304
1949232N07141 1949 57 WP MM NOT_NAMED 1949-08-21 18:00:00 TS 11.2000 133.200 main 798 773 __O___________ -1 11.2000 133.200 1 23 1002 8 303
1949232N07141 1949 57 WP MM NOT_NAMED 1949-08-21 21:00:00 TS 11.4075 132.865 main 773 734 __P___________ -1 11.4075 132.865 1 23 1002 8 300
1949232N07141 1949 57 WP MM NOT_NAMED 1949-08-22 00:00:00 TS 11.6000 132.500 main 734 691 __O___________ -1 11.6000 132.500 1 23 1002 8 295
1949232N07141 1949 57 WP MM NOT_NAMED 1949-08-22 03:00:00 TS 11.7500 132.107 main 691 651 __P___________ -1 11.7500 132.107 1 23 1002 8 291
1949232N07141 1949 57 WP MM NOT_NAMED 1949-08-22 06:00:00 TS 11.9000 131.700 main 651 612 __O___________ -1 11.9000 131.700 1 23 1002 9 295
1949232N07141 1949 57 WP MM NOT_NAMED 1949-08-22 09:00:00 TS 12.1149 131.300 main 612 574 __P___________ -1 12.1149 131.300 1 23 1002 9 297
1949232N07141 1949 57 WP MM NOT_NAMED 1949-08-22 12:00:00 TS 12.3000 130.900 main 574 535 __O___________ -1 12.3000 130.900 1 23 1002 8 290
1949232N07141 1949 57 WP MM NOT_NAMED 1949-08-22 15:00:00 TS 12.4025 130.493 main 535 494 __P___________ -1 12.4025 130.493 1 23 1002 8 277
1949232N07141 1949 57 WP MM NOT_NAMED 1949-08-22 18:00:00 TS 12.4000 130.100 main 494 449 __O___________ -1 12.4000 130.100 1 23 1002 8 261
1949232N07141 1949 57 WP MM NOT_NAMED 1949-08-22 21:00:00 TS 12.2800 129.712 main 449 411 __P___________ -1 12.2800 129.712 1 23 1002 7 246
1949232N07141 1949 57 WP MM NOT_NAMED 1949-08-23 00:00:00 TS 12.1000 129.400 main 411 387 __O___________ -1 12.1000 129.400 1 23 1002 6 235
1949232N07141 1949 57 WP MM NOT_NAMED 1949-08-23 03:00:00 TS 11.9424 129.228 main 384 370 __P___________ -1 11.9424 129.228 1 23 1002 4 224
1949232N07141 1949 57 WP MM NOT_NAMED 1949-08-23 06:00:00 TS 11.8000 129.100 main 370 347 __O___________ -1 11.8000 129.100 1 23 1002 4 232
1949232N07141 1949 57 WP MM NOT_NAMED 1949-08-23 09:00:00 TS 11.6925 128.900 main 347 323 __P___________ -1 11.6925 128.900 1 1003 4 243
1949232N07141 1949 57 WP MM NOT_NAMED 1949-08-23 12:00:00 TS 11.6000 128.700 main 323 310 __O___________ -1 11.6000 128.700 0 1004 4 241
1949232N07141 1949 57 WP MM NOT_NAMED 1949-08-23 15:00:00 TS 11.5000 128.543 main 299 287 __P___________ -1 11.5000 128.543 0 1004 4 236
1949232N07141 1949 57 WP MM NOT_NAMED 1949-08-23 18:00:00 TS 11.4000 128.400 main 287 275 __O___________ -1 11.4000 128.400 0 1004 3 235
1949232N07141 1949 57 WP MM NOT_NAMED 1949-08-23 21:00:00 TS 11.3000 128.252 main 275 252 __P___________ -1 11.3000 128.252 0 1004 4 236
1949232N07141 1949 57 WP MM NOT_NAMED 1949-08-24 00:00:00 TS 11.2000 128.100 main 252 __O___________ -1 11.2000 128.100 0 1004 4 236

Digital Typhoon Data and Search

About IBTrACS Database

This database is a web-friendly format of International Best Track Archive for Climate Stewardship (IBTrACS), a global best track data archive curated by NOAA dating back to 1842.

Updated: 2021-11-26